createdAt,value
2017-06-19T00:00:54.426Z,96.61
2017-06-19T00:02:06.931Z,96.42
2017-06-19T00:03:19.168Z,96.51
2017-06-19T00:04:31.393Z,96.22
2017-06-19T00:05:43.931Z,96.8
2017-06-19T00:06:56.455Z,96.7
2017-06-19T00:08:08.972Z,96.51
2017-06-19T00:09:21.514Z,96.51
2017-06-19T00:10:33.418Z,96.51
2017-06-19T00:11:45.340Z,96.7
2017-06-19T00:12:57.278Z,96.51
2017-06-19T00:14:09.190Z,96.7
2017-06-19T00:15:21.712Z,97.38
2017-06-19T00:16:34.246Z,97.47
2017-06-19T00:17:46.490Z,97.56
2017-06-19T00:18:59.032Z,96.89
2017-06-19T00:20:10.941Z,97.28
2017-06-19T00:21:23.165Z,96.7
2017-06-19T00:22:35.678Z,97.18
2017-06-19T00:23:48.217Z,97.56
2017-06-19T00:25:00.744Z,97.66
2017-06-19T00:26:12.969Z,97.66
2017-06-19T00:27:25.512Z,98.43
2017-06-19T00:28:38.033Z,98.33
2017-06-19T00:29:50.246Z,98
2017-06-19T00:31:02.478Z,97.8
2017-06-19T00:32:14.391Z,98
2017-06-19T00:33:26.942Z,97.9
2017-06-19T00:34:39.462Z,98.28
2017-06-19T00:35:51.988Z,98.28
2017-06-19T00:37:04.557Z,98.19
2017-06-19T00:38:16.795Z,98.38
2017-06-19T00:39:29.045Z,98.38
2017-06-19T00:40:41.575Z,98.38
2017-06-19T00:41:53.813Z,98.38
2017-06-19T00:43:06.059Z,98.38
2017-06-19T00:44:18.317Z,98.57
2017-06-19T00:45:30.818Z,97.9
2017-06-19T00:46:43.338Z,97.9
2017-06-19T00:47:55.567Z,97.61
2017-06-19T00:49:08.105Z,97.61
2017-06-19T00:50:20.662Z,98.38
2017-06-19T00:51:33.230Z,98.47
2017-06-19T00:52:45.454Z,98.28
2017-06-19T00:53:57.692Z,98.1
2017-06-19T00:55:09.920Z,98.28
2017-06-19T00:56:22.458Z,98
2017-06-19T00:57:34.729Z,98.38
2017-06-19T00:58:47.273Z,98.28
2017-06-19T00:59:59.784Z,98.47
2017-06-19T01:01:11.697Z,98.38
2017-06-19T01:02:24.222Z,98.38
2017-06-19T01:03:36.742Z,98.47
2017-06-19T01:04:49.260Z,98.57
2017-06-19T01:06:01.483Z,98.86
2017-06-19T01:07:13.746Z,98.96
2017-06-19T01:08:25.701Z,99.15
2017-06-19T01:09:37.636Z,98.96
2017-06-19T01:10:50.167Z,98.76
2017-06-19T01:12:02.407Z,98.86
2017-06-19T01:13:14.624Z,98.67
2017-06-19T01:14:27.148Z,98.86
2017-06-19T01:15:39.702Z,98.67
2017-06-19T01:16:52.254Z,98.38
2017-06-19T01:18:04.836Z,98.43
2017-06-19T01:19:17.066Z,98.67
2017-06-19T01:20:29.611Z,98.47
2017-06-19T01:21:41.856Z,99.29
2017-06-19T01:22:54.416Z,98.52
2017-06-19T01:24:06.972Z,98.62
2017-06-19T01:25:19.190Z,99.38
2017-06-19T01:26:31.397Z,99.19
2017-06-19T01:27:43.933Z,99.29
2017-06-19T01:28:56.453Z,99.38
2017-06-19T01:30:08.694Z,99.19
2017-06-19T01:31:21.249Z,99.19
2017-06-19T01:32:33.166Z,99
2017-06-19T01:33:45.404Z,99.1
2017-06-19T01:34:57.933Z,99.19
2017-06-19T01:36:10.481Z,99.48
2017-06-19T01:37:22.719Z,99.1
2017-06-19T01:38:35.245Z,99.29
2017-06-19T01:39:47.762Z,99.48
2017-06-19T01:41:00.309Z,99.19
2017-06-19T01:42:12.851Z,99.38
2017-06-19T01:43:25.371Z,99.29
2017-06-19T01:44:37.903Z,99.99
2017-06-19T01:45:50.149Z,99.99
2017-06-19T01:47:02.671Z,99.77
2017-06-19T01:48:15.212Z,99.87
2017-06-19T01:49:27.714Z,99.77
2017-06-19T01:50:40.238Z,99.96
2017-06-19T01:51:52.772Z,99.99
2017-06-19T01:53:05.324Z,99.96
2017-06-19T01:54:17.863Z,99.99
2017-06-19T01:55:30.072Z,99.58
2017-06-19T01:56:42.608Z,99.58
2017-06-19T01:57:54.857Z,99.99
2017-06-19T01:59:07.379Z,99.99
2017-06-19T02:00:19.927Z,99.99
2017-06-19T02:01:32.438Z,99.99
2017-06-19T02:02:44.991Z,99.99
2017-06-19T02:03:57.511Z,99.87
2017-06-19T02:05:09.731Z,99.99
2017-06-19T02:06:22.272Z,99.96
2017-06-19T02:07:34.822Z,99.99
2017-06-19T02:08:47.348Z,99.99
2017-06-19T02:09:59.264Z,99.99
2017-06-19T02:11:11.810Z,99.99
2017-06-19T02:12:24.352Z,99.99
2017-06-19T02:13:36.860Z,99.99
2017-06-19T02:14:49.057Z,99.99
2017-06-19T02:16:01.571Z,99.99
2017-06-19T02:17:14.117Z,99.99
2017-06-19T02:18:26.652Z,99.99
2017-06-19T02:19:39.185Z,99.99
2017-06-19T02:20:51.755Z,99.99
2017-06-19T02:22:03.991Z,99.99
2017-06-19T02:23:16.223Z,99.99
2017-06-19T02:24:28.793Z,99.99
2017-06-19T02:25:41.320Z,99.99
2017-06-19T02:26:53.848Z,99.99
2017-06-19T02:28:06.384Z,99.99
2017-06-19T02:29:18.626Z,99.99
2017-06-19T02:30:30.863Z,99.99
2017-06-19T02:31:43.410Z,99.99
2017-06-19T02:32:55.631Z,99.99
2017-06-19T02:34:07.584Z,99.99
2017-06-19T02:35:19.824Z,99.99
2017-06-19T02:36:32.354Z,99.99
2017-06-19T02:37:44.916Z,99.99
2017-06-19T02:38:57.466Z,99.99
2017-06-19T02:40:10.287Z,99.99
2017-06-19T02:41:22.837Z,99.99
2017-06-19T02:42:35.353Z,99.99
2017-06-19T02:43:47.879Z,99.99
2017-06-19T02:45:00.441Z,99.99
2017-06-19T02:46:12.650Z,99.99
2017-06-19T02:47:25.179Z,99.99
2017-06-19T02:48:37.725Z,99.99
2017-06-19T02:49:50.247Z,99.99
2017-06-19T02:51:02.468Z,99.99
2017-06-19T02:52:14.399Z,99.99
2017-06-19T02:53:26.934Z,99.99
2017-06-19T02:54:39.455Z,99.99
2017-06-19T02:55:51.379Z,99.99
2017-06-19T02:57:03.921Z,99.99
2017-06-19T02:58:16.425Z,99.99
2017-06-19T02:59:28.346Z,99.99
2017-06-19T03:00:40.588Z,99.99
2017-06-19T03:01:53.117Z,99.99
2017-06-19T03:03:05.659Z,99.99
2017-06-19T03:04:18.183Z,99.99
2017-06-19T03:05:30.725Z,99.99
2017-06-19T03:06:42.672Z,99.99
2017-06-19T03:07:55.211Z,99.99
2017-06-19T03:09:07.438Z,99.99
2017-06-19T03:10:19.980Z,99.99
2017-06-19T03:11:32.510Z,99.99
2017-06-19T03:12:45.052Z,99.99
2017-06-19T03:13:57.591Z,99.99
2017-06-19T03:15:10.118Z,99.99
2017-06-19T03:16:22.643Z,99.99
2017-06-19T03:17:34.889Z,99.99
2017-06-19T03:18:47.106Z,99.99
2017-06-19T03:19:59.655Z,99.99
2017-06-19T03:21:11.866Z,99.99
2017-06-19T03:22:24.072Z,99.99
2017-06-19T03:23:36.610Z,99.99
2017-06-19T03:24:48.861Z,99.99
2017-06-19T03:26:01.399Z,99.99
2017-06-19T03:27:13.031Z,99.99
2017-06-19T03:28:25.565Z,99.99
2017-06-19T03:29:38.073Z,99.99
2017-06-19T03:30:50.293Z,99.99
2017-06-19T03:32:02.542Z,99.99
2017-06-19T03:33:14.808Z,99.99
2017-06-19T03:34:27.046Z,99.99
2017-06-19T03:35:39.566Z,99.99
2017-06-19T03:36:52.098Z,99.99
2017-06-19T03:38:04.612Z,99.99
2017-06-19T03:39:17.129Z,99.99
2017-06-19T03:40:29.953Z,99.99
2017-06-19T03:41:42.481Z,99.99
2017-06-19T03:42:55.042Z,99.99
2017-06-19T03:44:07.565Z,99.99
2017-06-19T03:45:20.091Z,99.99
2017-06-19T03:46:32.629Z,99.99
2017-06-19T03:47:44.836Z,99.99
2017-06-19T03:48:57.373Z,99.99
2017-06-19T03:50:09.602Z,99.99
2017-06-19T03:51:21.825Z,99.99
2017-06-19T03:52:34.367Z,99.99
2017-06-19T03:53:46.879Z,99.99
2017-06-19T03:54:59.083Z,99.99
2017-06-19T03:56:11.304Z,99.99
2017-06-19T03:57:23.824Z,99.99
2017-06-19T03:58:35.742Z,99.99
2017-06-19T03:59:47.972Z,99.99
2017-06-19T04:01:00.213Z,99.99
2017-06-19T04:02:12.154Z,99.99
2017-06-19T04:03:24.672Z,99.99
2017-06-19T04:04:37.176Z,99.99
2017-06-19T04:05:49.696Z,99.99
2017-06-19T04:07:02.241Z,99.99
2017-06-19T04:08:14.160Z,99.99
2017-06-19T04:09:26.709Z,99.99
2017-06-19T04:10:38.926Z,99.99
2017-06-19T04:11:51.179Z,99.99
2017-06-19T04:13:03.690Z,99.99
2017-06-19T04:14:15.939Z,99.99
2017-06-19T04:15:27.865Z,99.99
2017-06-19T04:16:40.406Z,99.99
2017-06-19T04:17:52.949Z,99.99
2017-06-19T04:19:05.494Z,99.99
2017-06-19T04:20:18.047Z,99.99
2017-06-19T04:21:30.272Z,99.99
2017-06-19T04:22:42.815Z,99.99
2017-06-19T04:23:55.319Z,99.99
2017-06-19T04:25:07.585Z,99.99
2017-06-19T04:26:19.802Z,99.99
2017-06-19T04:27:32.019Z,99.99
2017-06-19T04:28:44.569Z,99.99
2017-06-19T04:29:57.120Z,99.99
2017-06-19T04:31:09.364Z,99.99
2017-06-19T04:32:21.310Z,99.99
2017-06-19T04:33:33.544Z,99.99
2017-06-19T04:34:45.741Z,99.99
2017-06-19T04:35:57.962Z,99.99
2017-06-19T04:37:10.159Z,99.99
2017-06-19T04:38:22.690Z,99.99
2017-06-19T04:39:35.253Z,99.99
2017-06-19T04:40:47.771Z,99.99
2017-06-19T04:42:00.299Z,99.99
2017-06-19T04:43:12.241Z,99.99
2017-06-19T04:44:24.484Z,99.99
2017-06-19T04:45:36.387Z,99.99
2017-06-19T04:46:48.029Z,99.99
2017-06-19T04:48:00.572Z,99.99
2017-06-19T04:49:12.501Z,99.99
2017-06-19T04:50:24.749Z,99.99
2017-06-19T04:51:37.270Z,99.99
2017-06-19T04:52:49.816Z,99.99
2017-06-19T04:54:02.379Z,99.99
2017-06-19T04:55:14.622Z,99.99
2017-06-19T04:56:26.834Z,99.99
2017-06-19T04:57:39.364Z,99.99
2017-06-19T04:58:51.585Z,99.99
2017-06-19T05:00:04.109Z,99.99
2017-06-19T05:01:16.652Z,99.99
2017-06-19T05:02:29.216Z,99.99
2017-06-19T05:03:41.743Z,99.99
2017-06-19T05:04:54.296Z,99.99
2017-06-19T05:06:06.794Z,99.99
2017-06-19T05:07:19.039Z,99.99
2017-06-19T05:08:30.959Z,99.99
2017-06-19T05:09:43.484Z,99.99
2017-06-19T05:10:56.004Z,99.99
2017-06-19T05:12:08.547Z,99.99
2017-06-19T05:13:20.464Z,99.99
2017-06-19T05:14:32.997Z,99.99
2017-06-19T05:15:45.540Z,99.99
2017-06-19T05:16:58.056Z,99.99
2017-06-19T05:18:10.594Z,99.99
2017-06-19T05:19:23.117Z,99.99
2017-06-19T05:20:35.362Z,99.99
2017-06-19T05:21:47.284Z,99.99
2017-06-19T05:22:59.811Z,99.49
2017-06-19T05:24:12.349Z,98.91
2017-06-19T05:25:24.845Z,99.06
2017-06-19T05:26:37.349Z,98.86
2017-06-19T05:27:49.895Z,98.39
2017-06-19T05:29:02.440Z,96.61
2017-06-19T05:30:14.980Z,96.27
2017-06-19T05:31:27.503Z,96.17
2017-06-19T05:32:40.031Z,95.26
2017-06-19T05:33:52.269Z,95.02
2017-06-19T05:35:04.488Z,94.2
2017-06-19T05:36:16.711Z,93.19
2017-06-19T05:37:29.246Z,92.32
2017-06-19T05:38:41.486Z,91.45
2017-06-19T05:39:53.721Z,91.2
2017-06-19T05:41:06.249Z,91.11
2017-06-19T05:42:18.816Z,90.44
2017-06-19T05:43:31.058Z,90.05
2017-06-19T05:44:43.578Z,89.71
2017-06-19T05:45:55.811Z,89.32
2017-06-19T05:47:08.333Z,89.09
2017-06-19T05:48:20.875Z,89.42
2017-06-19T05:49:33.099Z,88.65
2017-06-19T05:50:45.644Z,88.7
2017-06-19T05:51:58.189Z,88.22
2017-06-19T05:53:10.105Z,88.7
2017-06-19T05:54:22.656Z,88.41
2017-06-19T05:55:35.193Z,88.99
2017-06-19T05:56:47.421Z,88.6
2017-06-19T05:57:59.984Z,89.09
2017-06-19T05:59:12.216Z,88.51
2017-06-19T06:00:24.755Z,88.89
2017-06-19T06:01:37.283Z,88.6
2017-06-19T06:02:49.843Z,88.22
2017-06-19T06:04:02.389Z,88.7
2017-06-19T06:05:14.923Z,88.89
2017-06-19T06:06:27.467Z,88.89
2017-06-19T06:07:39.730Z,88.31
2017-06-19T06:08:52.280Z,89.18
2017-06-19T06:10:04.517Z,88.41
2017-06-19T06:11:16.164Z,87.83
2017-06-19T06:12:28.422Z,88.02
2017-06-19T06:13:40.964Z,87.83
2017-06-19T06:14:53.488Z,87.93
2017-06-19T06:16:05.434Z,87.16
2017-06-19T06:17:17.369Z,87.3
2017-06-19T06:18:29.898Z,87.1
2017-06-19T06:19:42.421Z,86.72
2017-06-19T06:20:54.660Z,86.72
2017-06-19T06:22:06.890Z,87.01
2017-06-19T06:23:19.152Z,86.96
2017-06-19T06:24:31.080Z,86.47
2017-06-19T06:25:43.627Z,86.13
2017-06-19T06:26:55.862Z,85.01
2017-06-19T06:28:08.383Z,83.22
2017-06-19T06:29:20.935Z,82.23
2017-06-19T06:30:33.200Z,81.46
2017-06-19T06:31:45.729Z,81.12
2017-06-19T06:32:57.978Z,79.9
2017-06-19T06:34:10.536Z,79.16
2017-06-19T06:35:23.092Z,79.35
2017-06-19T06:36:35.628Z,78.91
2017-06-19T06:37:48.164Z,78.52
2017-06-19T06:39:00.727Z,77.11
2017-06-19T06:40:13.292Z,77.04
2017-06-19T06:41:25.540Z,76.69
2017-06-19T06:42:37.788Z,75.72
2017-06-19T06:43:49.730Z,75.27
2017-06-19T06:45:02.283Z,75.41
2017-06-19T06:46:14.525Z,75.84
2017-06-19T06:47:27.100Z,74.71
2017-06-19T06:48:39.674Z,72.31
2017-06-19T06:49:52.236Z,71.66
2017-06-19T06:51:04.459Z,71.47
2017-06-19T06:52:16.432Z,71.31
2017-06-19T06:53:28.683Z,70.56
2017-06-19T06:54:41.220Z,69.46
2017-06-19T06:55:53.752Z,68.59
2017-06-19T06:57:06.294Z,66.8
2017-06-19T06:58:18.832Z,66.6
2017-06-19T06:59:30.784Z,64.19
2017-06-19T07:00:43.359Z,63.54
2017-06-19T07:01:55.650Z,62.19
2017-06-19T07:03:08.218Z,61.64
2017-06-19T07:04:20.770Z,60.89
2017-06-19T07:05:33.005Z,59.45
2017-06-19T07:06:45.534Z,56.9
2017-06-19T07:07:57.733Z,56.93
2017-06-19T07:09:10.281Z,57.42
2017-06-19T07:10:22.848Z,55.1
2017-06-19T07:11:35.389Z,53.13
2017-06-19T07:12:47.918Z,52.37
2017-06-19T07:14:00.477Z,51.12
2017-06-19T07:15:13.030Z,51.81
2017-06-19T07:16:25.603Z,50.63
2017-06-19T07:17:37.874Z,48.79
2017-06-19T07:18:50.447Z,48.89
2017-06-19T07:20:02.990Z,48.89
2017-06-19T07:21:15.539Z,49.29
2017-06-19T07:22:28.073Z,50.76
2017-06-19T07:23:40.605Z,50.39
2017-06-19T07:24:52.576Z,50.29
2017-06-19T07:26:04.862Z,50.09
2017-06-19T07:27:17.093Z,49.13
2017-06-19T07:28:29.332Z,48.55
2017-06-19T07:29:41.581Z,48.57
2017-06-19T07:30:54.128Z,48.86
2017-06-19T07:32:06.675Z,48.18
2017-06-19T07:33:18.911Z,47.91
2017-06-19T07:34:31.436Z,48.2
2017-06-19T07:35:43.988Z,46.43
2017-06-19T07:36:56.239Z,45.94
2017-06-19T07:38:08.799Z,44.68
2017-06-19T07:39:21.049Z,44.76
2017-06-19T07:40:33.318Z,45.07
2017-06-19T07:41:45.583Z,44.88
2017-06-19T07:42:58.132Z,44.98
2017-06-19T07:44:10.383Z,46.15
2017-06-19T07:45:22.325Z,46.45
2017-06-19T07:46:34.870Z,45.17
2017-06-19T07:47:47.141Z,45.17
2017-06-19T07:48:59.391Z,44.88
2017-06-19T07:50:11.654Z,45.74
2017-06-19T07:51:24.200Z,46.92
2017-06-19T07:52:36.459Z,46.8
2017-06-19T07:53:48.721Z,46.8
2017-06-19T07:55:01.266Z,47.49
2017-06-19T07:56:13.538Z,47.58
2017-06-19T07:57:25.491Z,47.69
2017-06-19T07:58:37.758Z,46.8
2017-06-19T07:59:49.704Z,46.9
2017-06-19T08:01:02.268Z,46.21
2017-06-19T08:02:14.525Z,46.01
2017-06-19T08:03:26.770Z,46.21
2017-06-19T08:04:39.034Z,46.21
2017-06-19T08:05:50.977Z,46.41
2017-06-19T08:07:03.198Z,45.81
2017-06-19T08:08:15.752Z,46.21
2017-06-19T08:09:27.715Z,46.21
2017-06-19T08:10:39.684Z,46.9
2017-06-19T08:11:51.668Z,46.21
2017-06-19T08:13:04.212Z,46.43
2017-06-19T08:14:16.500Z,46.62
2017-06-19T08:15:28.777Z,45.86
2017-06-19T08:16:41.046Z,45.56
2017-06-19T08:17:53.343Z,44.4
2017-06-19T08:19:05.918Z,43.91
2017-06-19T08:20:18.181Z,43.64
2017-06-19T08:21:30.759Z,43.34
2017-06-19T08:22:43.319Z,43.07
2017-06-19T08:23:55.890Z,43.54
2017-06-19T08:25:08.420Z,44.62
2017-06-19T08:26:20.986Z,45.09
2017-06-19T08:27:33.256Z,44.88
2017-06-19T08:28:45.532Z,45.84
2017-06-19T08:29:57.807Z,46.7
2017-06-19T08:31:10.373Z,46.68
2017-06-19T08:32:22.640Z,45.99
2017-06-19T08:33:34.912Z,45.5
2017-06-19T08:34:47.458Z,45.01
2017-06-19T08:35:59.730Z,44.59
2017-06-19T08:37:12.328Z,44.4
2017-06-19T08:38:24.894Z,44.4
2017-06-19T08:39:37.162Z,44.87
2017-06-19T08:40:49.109Z,45.55
2017-06-19T08:42:01.057Z,46.04
2017-06-19T08:43:13.628Z,46.61
2017-06-19T08:44:26.179Z,47.45
2017-06-19T08:45:38.127Z,47.72
2017-06-19T08:46:50.691Z,47.06
2017-06-19T08:48:02.945Z,47.42
2017-06-19T08:49:15.239Z,47.94
2017-06-19T08:50:27.780Z,46.95
2017-06-19T08:51:40.357Z,46.88
2017-06-19T08:52:52.617Z,46.31
2017-06-19T08:54:04.826Z,46.04
2017-06-19T08:55:17.117Z,46.14
2017-06-19T08:56:29.681Z,46.44
2017-06-19T08:57:41.600Z,46.53
2017-06-19T08:58:53.829Z,46.71
2017-06-19T09:00:06.367Z,45.36
2017-06-19T09:01:18.938Z,45.55
2017-06-19T09:02:31.442Z,45.16
2017-06-19T09:03:44.010Z,45.09
2017-06-19T09:04:56.576Z,44.2
2017-06-19T09:06:09.134Z,43.9
2017-06-19T09:07:21.708Z,44.02
2017-06-19T09:08:34.276Z,44.12
2017-06-19T09:09:46.836Z,44.05
2017-06-19T09:10:59.392Z,43.87
2017-06-19T09:12:11.641Z,43.57
2017-06-19T09:13:23.933Z,41.24
2017-06-19T09:14:36.494Z,41.65
2017-06-19T09:15:49.050Z,41.67
2017-06-19T09:17:00.722Z,41.08
2017-06-19T09:18:12.983Z,40.9
2017-06-19T09:19:24.965Z,40.7
2017-06-19T09:20:37.233Z,40.53
2017-06-19T09:21:49.498Z,40.13
2017-06-19T09:23:02.050Z,40.23
2017-06-19T09:24:14.322Z,40.35
2017-06-19T09:25:26.894Z,40.47
2017-06-19T09:26:38.877Z,40.47
2017-06-19T09:27:51.410Z,39.48
2017-06-19T09:29:03.955Z,38.79
2017-06-19T09:30:16.230Z,38
2017-06-19T09:31:28.565Z,37.68
2017-06-19T09:32:41.117Z,39.56
2017-06-19T09:33:53.414Z,40.15
2017-06-19T09:35:05.976Z,39.76
2017-06-19T09:36:18.549Z,39.58
2017-06-19T09:37:30.799Z,38.98
2017-06-19T09:38:43.073Z,38.31
2017-06-19T09:39:55.007Z,37.84
2017-06-19T09:41:07.562Z,37.54
2017-06-19T09:42:20.107Z,37.34
2017-06-19T09:43:32.682Z,37.96
2017-06-19T09:44:44.949Z,37.96
2017-06-19T09:45:57.519Z,38.35
2017-06-19T09:47:09.483Z,38.86
2017-06-19T09:48:21.732Z,38.57
2017-06-19T09:49:34.308Z,38.47
2017-06-19T09:50:46.571Z,37.3
2017-06-19T09:51:58.862Z,37.1
2017-06-19T09:53:11.438Z,37.98
2017-06-19T09:54:23.688Z,38.37
2017-06-19T09:55:36.263Z,38.96
2017-06-19T09:56:48.833Z,39.16
2017-06-19T09:58:01.097Z,39.56
2017-06-19T09:59:13.350Z,38.76
2017-06-19T10:00:25.618Z,37.98
2017-06-19T10:01:38.188Z,37.6
2017-06-19T10:02:50.441Z,36.8
2017-06-19T10:04:03.013Z,36.62
2017-06-19T10:05:15.272Z,36.13
2017-06-19T10:06:27.546Z,36.72
2017-06-19T10:07:39.821Z,37.62
2017-06-19T10:08:52.107Z,37.3
2017-06-19T10:10:04.081Z,38.86
2017-06-19T10:11:16.330Z,39.04
2017-06-19T10:12:28.307Z,37.76
2017-06-19T10:13:39.969Z,37.54
2017-06-19T10:14:52.526Z,37.34
2017-06-19T10:16:04.773Z,37.24
2017-06-19T10:17:17.335Z,37.84
2017-06-19T10:18:29.902Z,39.04
2017-06-19T10:19:42.485Z,37.96
2017-06-19T10:20:55.052Z,37.85
2017-06-19T10:22:07.626Z,36.77
2017-06-19T10:23:20.186Z,36.18
2017-06-19T10:24:32.764Z,36.27
2017-06-19T10:25:45.335Z,36.47
2017-06-19T10:26:57.899Z,36.59
2017-06-19T10:28:10.456Z,36.57
2017-06-19T10:29:23.019Z,36.19
2017-06-19T10:30:35.619Z,36.21
2017-06-19T10:31:48.189Z,35.52
2017-06-19T10:33:00.457Z,35.73
2017-06-19T10:34:12.999Z,35.24
2017-06-19T10:35:25.553Z,36.01
2017-06-19T10:36:38.100Z,36.52
2017-06-19T10:37:50.648Z,36.62
2017-06-19T10:39:03.196Z,36.05
2017-06-19T10:40:15.766Z,35.55
2017-06-19T10:41:28.335Z,35.57
2017-06-19T10:42:40.878Z,35.47
2017-06-19T10:43:53.124Z,35.57
2017-06-19T10:45:05.662Z,34.5
2017-06-19T10:46:17.933Z,34.4
2017-06-19T10:47:30.186Z,34.31
2017-06-19T10:48:42.725Z,34.41
2017-06-19T10:49:54.974Z,33.54
2017-06-19T10:51:07.529Z,33.85
2017-06-19T10:52:20.091Z,34.17
2017-06-19T10:53:32.662Z,34.36
2017-06-19T10:54:45.229Z,34.06
2017-06-19T10:55:57.754Z,34.08
2017-06-19T10:57:10.333Z,34.2
2017-06-19T10:58:22.304Z,35.5
2017-06-19T10:59:34.863Z,35.41
2017-06-19T11:00:47.393Z,35.01
2017-06-19T11:01:59.944Z,34.13
2017-06-19T11:03:12.562Z,33.44
2017-06-19T11:04:25.108Z,32.65
2017-06-19T11:05:37.693Z,33.15
2017-06-19T11:06:50.239Z,32.15
2017-06-19T11:08:02.485Z,31.67
2017-06-19T11:09:14.434Z,31.18
2017-06-19T11:10:26.384Z,30.89
2017-06-19T11:11:38.935Z,31.1
2017-06-19T11:12:51.201Z,31.32
2017-06-19T11:14:03.440Z,32.71
2017-06-19T11:15:15.994Z,32.32
2017-06-19T11:16:27.957Z,33.31
2017-06-19T11:17:40.230Z,32.32
2017-06-19T11:18:52.799Z,32.14
2017-06-19T11:20:05.378Z,31.73
2017-06-19T11:21:17.047Z,31.54
2017-06-19T11:22:29.609Z,31.13
2017-06-19T11:23:41.867Z,30.44
2017-06-19T11:24:54.403Z,29.85
2017-06-19T11:26:06.976Z,30.14
2017-06-19T11:27:19.244Z,29.95
2017-06-19T11:28:31.793Z,30.15
2017-06-19T11:29:44.360Z,30.45
2017-06-19T11:30:56.610Z,31.05
2017-06-19T11:32:08.931Z,30.65
2017-06-19T11:33:21.228Z,30.35
2017-06-19T11:34:32.877Z,29.57
2017-06-19T11:35:45.469Z,30.05
2017-06-19T11:36:57.718Z,29.67
2017-06-19T11:38:09.690Z,29.97
2017-06-19T11:39:21.963Z,29.75
2017-06-19T11:40:34.203Z,30.54
2017-06-19T11:41:46.477Z,30.82
2017-06-19T11:42:58.476Z,30.72
2017-06-19T11:44:10.748Z,31.02
2017-06-19T11:45:22.408Z,31.42
2017-06-19T11:46:33.740Z,31.7
2017-06-19T11:47:46.303Z,31.57
2017-06-19T11:48:58.581Z,32.06
2017-06-19T11:50:10.841Z,32.45
2017-06-19T11:51:22.791Z,33.04
2017-06-19T11:52:35.069Z,33.23
2017-06-19T11:53:47.033Z,32.44
2017-06-19T11:54:59.579Z,32.65
2017-06-19T11:56:12.158Z,32.26
2017-06-19T11:57:24.392Z,31.37
2017-06-19T11:58:36.614Z,31.07
2017-06-19T11:59:48.858Z,30.59
2017-06-19T12:01:00.813Z,30.1
2017-06-19T12:02:12.758Z,30.71
2017-06-19T12:03:25.304Z,30.52
2017-06-19T12:04:37.543Z,30.24
2017-06-19T12:05:50.116Z,30.04
2017-06-19T12:07:02.667Z,29.75
2017-06-19T12:08:14.631Z,29.85
2017-06-19T12:09:27.177Z,29.46
2017-06-19T12:10:39.734Z,29.85
2017-06-19T12:11:52.305Z,29.65
2017-06-19T12:13:04.575Z,29.47
2017-06-19T12:14:16.860Z,29.57
2017-06-19T12:15:29.434Z,29.28
2017-06-19T12:16:41.410Z,28.98
2017-06-19T12:17:53.959Z,29.1
2017-06-19T12:19:05.647Z,28.68
2017-06-19T12:20:17.953Z,28.67
2017-06-19T12:21:30.522Z,28.96
2017-06-19T12:22:43.082Z,29.72
2017-06-19T12:23:55.663Z,29.81
2017-06-19T12:25:07.906Z,29.81
2017-06-19T12:26:20.477Z,30.21
2017-06-19T12:27:33.050Z,30.21
2017-06-19T12:28:45.596Z,30.21
2017-06-19T12:29:57.868Z,30.42
2017-06-19T12:31:09.843Z,31.02
2017-06-19T12:32:22.109Z,31.22
2017-06-19T12:33:33.780Z,30.21
2017-06-19T12:34:45.152Z,30.59
2017-06-19T12:35:57.399Z,30.49
2017-06-19T12:37:09.969Z,31.01
2017-06-19T12:38:22.207Z,30.32
2017-06-19T12:39:34.160Z,30.62
2017-06-19T12:40:46.722Z,30.22
2017-06-19T12:41:59.274Z,30.42
2017-06-19T12:43:11.822Z,30.24
2017-06-19T12:44:24.111Z,30.65
2017-06-19T12:45:35.791Z,30.45
2017-06-19T12:46:47.762Z,30.77
2017-06-19T12:48:00.332Z,29.47
2017-06-19T12:49:12.903Z,28.57
2017-06-19T12:50:25.167Z,29.58
2017-06-19T12:51:37.434Z,29.58
2017-06-19T12:52:50.017Z,29.06
2017-06-19T12:54:02.576Z,29.55
2017-06-19T12:55:14.500Z,30.22
2017-06-19T12:56:27.079Z,30.59
2017-06-19T12:57:39.367Z,31.26
2017-06-19T12:58:51.620Z,31.54
2017-06-19T13:00:03.888Z,32.11
2017-06-19T13:01:16.154Z,32.09
2017-06-19T13:02:28.399Z,32.38
2017-06-19T13:03:40.379Z,32.26
2017-06-19T13:04:52.950Z,32.73
2017-06-19T13:06:05.517Z,34.2
2017-06-19T13:07:17.784Z,35.29
2017-06-19T13:08:30.362Z,35.67
2017-06-19T13:09:42.629Z,35.75
2017-06-19T13:10:53.971Z,35.34
2017-06-19T13:12:06.522Z,34.86
2017-06-19T13:13:19.064Z,34.27
2017-06-19T13:14:31.667Z,33.89
2017-06-19T13:15:44.251Z,34.18
2017-06-19T13:16:56.510Z,34
2017-06-19T13:18:08.768Z,33.33
2017-06-19T13:19:20.719Z,33.04
2017-06-19T13:20:32.990Z,33.14
2017-06-19T13:21:45.214Z,33.25
2017-06-19T13:22:57.781Z,34.17
2017-06-19T13:24:10.356Z,32.57
2017-06-19T13:25:22.605Z,30.91
2017-06-19T13:26:34.294Z,31.02
2017-06-19T13:27:46.862Z,30.72
2017-06-19T13:28:59.131Z,31.21
2017-06-19T13:30:10.781Z,31.41
2017-06-19T13:31:23.375Z,31.41
2017-06-19T13:32:35.930Z,32.21
2017-06-19T13:33:48.194Z,32.09
2017-06-19T13:35:00.147Z,33.11
2017-06-19T13:36:12.407Z,32.59
2017-06-19T13:37:24.661Z,31
2017-06-19T13:38:36.934Z,31.02
2017-06-19T13:39:49.500Z,32.01
2017-06-19T13:41:02.049Z,32.21
2017-06-19T13:42:14.590Z,32.09
2017-06-19T13:43:26.536Z,32.29
2017-06-19T13:44:38.507Z,32.48
2017-06-19T13:45:51.086Z,32.17
2017-06-19T13:47:03.649Z,31.98
2017-06-19T13:48:16.199Z,32.28
2017-06-19T13:49:28.141Z,32.57
2017-06-19T13:50:40.095Z,32.48
2017-06-19T13:51:52.054Z,31.8
2017-06-19T13:53:03.709Z,32.39
2017-06-19T13:54:15.647Z,32.2
2017-06-19T13:55:27.592Z,31.99
2017-06-19T13:56:38.942Z,31.8
2017-06-19T13:57:50.612Z,31.51
2017-06-19T13:59:02.258Z,32.01
2017-06-19T14:00:14.206Z,31.43
2017-06-19T14:01:26.476Z,31.83
2017-06-19T14:02:37.830Z,32.23
2017-06-19T14:03:49.793Z,31.73
2017-06-19T14:05:02.344Z,32.11
2017-06-19T14:06:14.910Z,31.21
2017-06-19T14:07:26.577Z,31.43
2017-06-19T14:08:38.822Z,31.63
2017-06-19T14:09:51.072Z,30.93
2017-06-19T14:11:02.748Z,30.9
2017-06-19T14:12:14.387Z,31.4
2017-06-19T14:13:26.931Z,31.4
2017-06-19T14:14:38.581Z,30.9
2017-06-19T14:15:51.137Z,31.4
2017-06-19T14:17:03.070Z,31.9
2017-06-19T14:18:15.318Z,32.2
2017-06-19T14:19:26.973Z,32.09
2017-06-19T14:20:38.665Z,31.51
2017-06-19T14:21:50.629Z,31.1
2017-06-19T14:23:02.879Z,31.02
2017-06-19T14:24:15.455Z,31.02
2017-06-19T14:25:27.416Z,30.91
2017-06-19T14:26:39.990Z,30.91
2017-06-19T14:27:52.232Z,30.52
2017-06-19T14:29:04.792Z,30.91
2017-06-19T14:30:17.055Z,31.1
2017-06-19T14:31:29.358Z,31.5
2017-06-19T14:32:41.917Z,31.02
2017-06-19T14:33:54.470Z,30.91
2017-06-19T14:35:06.737Z,31.21
2017-06-19T14:36:19.012Z,30.91
2017-06-19T14:37:31.561Z,30.52
2017-06-19T14:38:43.800Z,30.22
2017-06-19T14:39:56.372Z,30.62
2017-06-19T14:41:08.342Z,30.63
2017-06-19T14:42:20.912Z,30.91
2017-06-19T14:43:33.483Z,31.32
2017-06-19T14:44:45.733Z,31.02
2017-06-19T14:45:58.300Z,30.82
2017-06-19T14:47:10.900Z,30.91
2017-06-19T14:48:23.471Z,31.02
2017-06-19T14:49:36.020Z,30.9
2017-06-19T14:50:48.585Z,31
2017-06-19T14:52:01.134Z,31
2017-06-19T14:53:13.697Z,31.09
2017-06-19T14:54:26.250Z,31.27
2017-06-19T14:55:38.491Z,31.35
2017-06-19T14:56:50.747Z,31.54
2017-06-19T14:58:03.313Z,32.33
2017-06-19T14:59:15.555Z,33.19
2017-06-19T15:00:28.126Z,32.98
2017-06-19T15:01:40.696Z,34.15
2017-06-19T15:02:53.301Z,34.81
2017-06-19T15:04:05.843Z,35.28
2017-06-19T15:05:18.381Z,36.06
2017-06-19T15:06:30.931Z,36.42
2017-06-19T15:07:43.526Z,36
2017-06-19T15:08:55.773Z,36.19
2017-06-19T15:10:08.015Z,36.78
2017-06-19T15:11:20.272Z,37.05
2017-06-19T15:12:32.815Z,37.73
2017-06-19T15:13:45.365Z,37.81
2017-06-19T15:14:57.926Z,37.69
2017-06-19T15:16:09.877Z,38.46
2017-06-19T15:17:22.445Z,38.66
2017-06-19T15:18:35.019Z,38.54
2017-06-19T15:19:47.568Z,38.62
2017-06-19T15:20:59.536Z,39.7
2017-06-19T15:22:11.786Z,40.47
2017-06-19T15:23:24.027Z,40.76
2017-06-19T15:24:36.277Z,40.84
2017-06-19T15:25:48.845Z,40.64
2017-06-19T15:27:01.383Z,40.82
2017-06-19T15:28:13.331Z,40.72
2017-06-19T15:29:25.602Z,41.09
2017-06-19T15:30:37.545Z,41.29
2017-06-19T15:31:49.493Z,41.27
2017-06-19T15:33:01.994Z,41.37
2017-06-19T15:34:13.966Z,41.56
2017-06-19T15:35:26.533Z,41.94